Latest Coastal Weather Observations for Ngayawili (Elcho Island)

IDD60701

Issued at 2:41 pm CST Saturday 25 June 2016 (issued every 10 minutes, with the page automatically refreshed every 10 minutes)

About coastal observations | Map of coastal stations | Coastal observations for NT | Marine services | Other Formats
Station Details ID: 014517 Name: NGAYAWILI Lat: -12.00 Lon: 135.57 Height: 8.1 m
Data from the previous 72 hours. | See also: Recent months at Ngayawili (Elcho Island)
Date/Time
CST
Temp
°C
Wind Pressure Rain since
9am
mm
Weather Cloud Vis
km
Sea
Height
m
Swell
Dir  Spd
kts
Gust
kts
hPa Trend Height
m
Period
s
Dir
25/02:30pm 31.5 E 11 20 1010.3 - 0.0 - - - - - - -
25/02:00pm 31.6 ESE 13 19 1010.6 - 0.0 - - - - - - -
25/01:30pm 30.7 ESE 11 19 1010.8 - 0.0 - - - - - - -
25/01:00pm 31.1 SE 10 19 1011.3 - 0.0 - - - - - - -
25/12:30pm 31.2 ESE 11 18 1011.6 - 0.0 - - - - - - -
25/12:00pm 31.1 ESE 11 19 1011.8 - 0.0 - - - - - - -
25/11:30am 30.9 ESE 11 18 1012.1 - 0.0 - - - - - - -
25/11:00am 30.8 SE 13 19 1012.4 - 0.0 - - - - - - -
25/10:30am 30.5 ESE 9 17 1012.5 - 0.0 - - - - - - -
25/10:00am 29.0 SE 10 14 1012.7 - 0.0 - - - - - - -
25/09:30am 28.2 SE 9 13 1012.8 - 0.0 - - - - - - -
25/09:00am 27.6 SE 8 11 1012.8 - 0.0 - - - - - - -
25/08:30am 26.7 SSE 7 11 1012.5 - 0.0 - - - - - - -
25/08:00am 25.6 SSE 7 11 1012.2 - 0.0 - - - - - - -
25/07:30am 24.9 SSE 6 9 1012.0 - 0.0 - - - - - - -
25/07:00am 24.8 SSE 7 9 1011.7 - 0.0 - - - - - - -
25/06:30am 25.0 SSE 7 9 1011.5 - 0.0 - - - - - - -
25/06:00am 25.0 SE 5 8 1011.4 - 0.0 - - - - - - -
25/05:30am 24.8 SE 6 8 1011.3 - 0.0 - - - - - - -
25/05:00am 24.8 SE 5 7 1011.2 - 0.0 - - - - - - -
25/04:30am 25.0 SE 6 8 1010.9 - 0.0 - - - - - - -
25/04:00am 25.2 SE 6 9 1010.8 - 0.0 - - - - - - -
25/03:30am 25.2 SE 6 11 1011.0 - 0.0 - - - - - - -
25/03:00am 25.3 SE 7 11 1011.1 - 0.0 - - - - - - -
25/02:30am 25.4 SE 7 11 1011.3 - 0.0 - - - - - - -
25/02:00am 25.7 SE 7 12 1011.5 - 0.0 - - - - - - -
25/01:30am 25.8 SE 7 11 1011.6 - 0.0 - - - - - - -
25/01:00am 25.9 SE 7 11 1011.7 - 0.0 - - - - - - -
25/12:30am 26.1 SE 8 13 1011.7 - 0.0 - - - - - - -
25/12:00am 26.2 SE 7 12 1011.8 - 0.0 - - - - - - -
 
Date/Time
CST
Temp
°C
Wind Pressure Rain since
9am
mm
Weather Cloud Vis
km
Sea
Height
m
Swell
Dir  Spd
kts
Gust
kts
hPa Trend Height
m
Period
s
Dir
24/11:30pm 26.3 ESE 7 12 1011.9 - 0.0 - - - - - - -
24/11:00pm 26.4 ESE 7 14 1011.9 - 0.0 - - - - - - -
24/10:30pm 26.6 ESE 7 14 1011.9 - 0.0 - - - - - - -
24/10:00pm 26.8 ESE 8 13 1012.0 - 0.0 - - - - - - -
24/09:30pm 27.0 ESE 8 15 1011.8 - 0.0 - - - - - - -
24/09:00pm 27.2 ESE 9 16 1011.6 - 0.0 - - - - - - -
24/08:30pm 27.4 ESE 8 12 1011.4 - 0.0 - - - - - - -
24/08:00pm 27.5 ESE 7 10 1011.0 - 0.0 - - - - - - -
24/07:30pm 27.9 ESE 9 14 1010.5 - 0.0 - - - - - - -
24/07:00pm 28.1 ESE 9 16 1010.0 - 0.0 - - - - - - -
24/06:30pm 28.4 ESE 9 15 1009.9 - 0.0 - - - - - - -
24/06:00pm 28.6 ESE 9 14 1010.0 - 0.0 - - - - - - -
24/05:30pm 28.9 ESE 7 12 1010.0 - 0.0 - - - - - - -
24/05:00pm 29.4 E 8 13 1010.1 - 0.0 - - - - - - -
24/04:30pm 29.6 E 7 15 1010.2 - 0.0 - - - - - - -
24/04:00pm 30.0 E 8 12 1010.0 - 0.0 - - - - - - -
24/03:30pm 30.3 E 6 9 1009.9 - 0.0 - - - - - - -
24/03:00pm 30.2 E 8 13 1010.0 - 0.0 - - - - - - -
24/02:30pm 30.4 E 9 14 1010.2 - 0.0 - - - - - - -
24/02:00pm 30.7 E 8 13 1010.6 - 0.0 - - - - - - -
24/01:30pm 30.4 E 9 13 1010.9 - 0.0 - - - - - - -
24/01:00pm 30.1 E 8 12 1011.1 - 0.0 - - - - - - -
24/12:30pm 30.6 E 7 11 1011.5 - 0.0 - - - - - - -
24/12:00pm 30.2 ESE 6 11 1012.2 - 0.0 - - - - - - -
24/11:30am 29.9 ESE 9 15 1012.4 - 0.0 - - - - - - -
24/11:00am 29.6 SE 9 13 1012.6 - 0.0 - - - - - - -
24/10:30am 28.4 SE 9 13 1012.9 - 0.0 - - - - - - -
24/10:00am 27.5 SE 8 12 1012.9 - 0.0 - - - - - - -
24/09:30am 27.2 SE 9 15 1012.7 - 0.0 - - - - - - -
24/09:00am 26.5 ESE 9 14 1012.8 - 0.0 - - - - - - -
24/08:30am 25.9 SE 8 14 1012.5 - 0.0 - - - - - - -
24/08:00am 25.3 SE 8 13 1012.1 - 0.0 - - - - - - -
24/07:30am 24.6 SE 6 11 1011.7 - 0.0 - - - - - - -
24/07:00am 24.4 SE 7 11 1011.2 - 0.0 - - - - - - -
24/06:30am 24.2 SE 7 10 1011.1 - 0.0 - - - - - - -
24/06:00am 24.0 SE 8 12 1010.7 - 0.0 - - - - - - -
24/05:30am 24.1 SE 9 12 1010.5 - 0.0 - - - - - - -
24/05:00am 24.2 SE 8 11 1010.2 - 0.0 - - - - - - -
24/04:30am 24.2 SE 8 11 1010.1 - 0.0 - - - - - - -
24/04:00am 24.4 SE 8 11 1010.1 - 0.0 - - - - - - -
24/03:30am 24.7 SSE 8 11 1010.2 - 0.0 - - - - - - -
24/03:00am 25.0 SE 7 10 1010.4 - 0.0 - - - - - - -
24/02:30am 25.1 SE 8 12 1010.5 - 0.0 - - - - - - -
24/02:00am 25.2 SE 7 10 1010.7 - 0.0 - - - - - - -
24/01:30am 25.5 SE 8 11 1010.9 - 0.0 - - - - - - -
24/01:00am 25.6 SE 8 12 1010.8 - 0.0 - - - - - - -
24/12:30am 25.8 SE 7 13 1011.2 - 0.0 - - - - - - -
24/12:00am 26.0 SE 7 11 1011.2 - 0.0 - - - - - - -
 
Date/Time
CST
Temp
°C
Wind Pressure Rain since
9am
mm
Weather Cloud Vis
km
Sea
Height
m
Swell
Dir  Spd
kts
Gust
kts
hPa Trend Height
m
Period
s
Dir
23/11:30pm 26.1 ESE 7 11 1011.1 - 0.0 - - - - - - -
23/11:00pm 26.2 ESE 7 11 1011.2 - 0.0 - - - - - - -
23/10:30pm 26.4 ESE 7 12 1011.4 - 0.0 - - - - - - -
23/10:00pm 26.7 ESE 7 11 1011.5 - 0.0 - - - - - - -
23/09:30pm 26.9 ESE 7 12 1011.6 - 0.0 - - - - - - -
23/09:00pm 27.1 ESE 7 12 1011.3 - 0.0 - - - - - - -
23/08:30pm 27.5 ESE 6 9 1011.0 - 0.0 - - - - - - -
23/08:00pm 27.7 ESE 6 10 1010.6 - 0.0 - - - - - - -
23/07:30pm 28.1 ESE 6 11 1010.0 - 0.0 - - - - - - -
23/07:00pm 28.5 E 6 9 1009.6 - 0.0 - - - - - - -
23/06:30pm 28.7 ESE 5 8 1009.6 - 0.0 - - - - - - -
23/06:00pm 29.0 E 7 10 1009.2 - 0.0 - - - - - - -
23/05:30pm 29.4 E 8 13 1008.9 - 0.0 - - - - - - -
23/05:00pm 29.6 E 6 10 1008.6 - 0.0 - - - - - - -
23/04:30pm 30.4 E 7 12 1008.3 - 0.0 - - - - - - -
23/04:00pm 31.0 E 6 11 1008.2 - 0.0 - - - - - - -
23/03:30pm 30.7 ESE 8 12 1008.2 - 0.0 - - - - - - -
23/03:00pm 31.2 E 8 12 1008.3 - 0.0 - - - - - - -
23/02:30pm 32.0 ESE 8 12 1008.5 - 0.0 - - - - - - -
23/02:00pm 31.4 SE 8 12 1009.0 - 0.0 - - - - - - -
23/01:30pm 31.4 SE 8 12 1009.2 - 0.0 - - - - - - -
23/01:00pm 31.2 SE 8 13 1009.8 - 0.0 - - - - - - -
23/12:30pm 31.5 ESE 8 14 1010.2 - 0.0 - - - - - - -
23/12:00pm 30.9 SE 9 14 1010.5 - 0.0 - - - - - - -
23/11:30am 30.4 SE 8 13 1011.1 - 0.0 - - - - - - -
23/11:00am 29.4 ESE 9 13 1011.4 - 0.0 - - - - - - -
23/10:30am 29.3 SE 8 12 1011.7 - 0.0 - - - - - - -
23/10:00am 28.6 SE 9 13 1012.0 - 0.0 - - - - - - -
23/09:30am 28.2 SE 8 12 1012.0 - 0.0 - - - - - - -
23/09:00am 27.1 SE 10 16 1012.1 - 0.0 - - - - - - -
23/08:30am 26.6 SSE 10 13 1011.8 - 0.0 - - - - - - -
23/08:00am 25.8 SSE 8 13 1011.2 - 0.0 - - - - - - -
23/07:30am 25.0 SSE 7 11 1010.9 - 0.0 - - - - - - -
23/07:00am 24.7 SSE 7 9 1010.6 - 0.0 - - - - - - -
23/06:30am 25.1 SSE 8 14 1010.3 - 0.0 - - - - - - -
23/06:00am 25.4 SE 7 10 1010.4 - 0.0 - - - - - - -
23/05:30am 25.2 SE 5 8 1010.3 - 0.0 - - - - - - -
23/05:00am 25.1 SE 7 11 1010.2 - 0.0 - - - - - - -
23/04:30am 25.2 SE 7 12 1010.0 - 0.0 - - - - - - -
23/04:00am 25.0 ESE 6 8 1010.0 - 0.0 - - - - - - -
23/03:30am 25.0 SE 7 12 1010.0 - 0.0 - - - - - - -
23/03:00am 24.7 SE 7 10 1010.0 - 0.0 - - - - - - -
23/02:30am 24.5 SE 6 9 1010.3 - 0.0 - - - - - - -
23/02:00am 24.6 SE 6 9 1010.6 - 0.0 - - - - - - -
23/01:30am 24.8 SE 9 15 1011.0 - 0.0 - - - - - - -
23/01:00am 24.8 SE 6 11 1011.3 - 0.0 - - - - - - -
23/12:30am 25.0 SE 7 11 1011.7 - 0.0 - - - - - - -
23/12:00am 25.2 SE 9 13 1011.7 - 0.0 - - - - - - -
 
Date/Time
CST
Temp
°C
Wind Pressure Rain since
9am
mm
Weather Cloud Vis
km
Sea
Height
m
Swell
Dir  Spd
kts
Gust
kts
hPa Trend Height
m
Period
s
Dir
22/11:30pm 25.3 SE 9 13 1011.9 - 0.0 - - - - - - -
22/11:00pm 25.5 SE 8 13 1011.9 - 0.0 - - - - - - -
22/10:30pm 25.8 SE 9 13 1011.8 - 0.0 - - - - - - -
22/10:00pm 26.0 SE 9 15 1011.7 - 0.0 - - - - - - -
22/09:30pm 26.3 SE 9 15 1011.6 - 0.0 - - - - - - -
22/09:00pm 26.7 SE 9 14 1011.4 - 0.0 - - - - - - -
22/08:30pm 27.1 SE 7 11 1011.1 - 0.0 - - - - - - -
22/08:00pm 27.2 SE 7 11 1010.9 - 0.0 - - - - - - -
22/07:30pm 27.6 ESE 5 8 1010.3 - 0.0 - - - - - - -
22/07:00pm 27.8 ESE 7 9 1009.6 - 0.0 - - - - - - -
22/06:30pm 28.0 ESE 7 11 1009.1 - 0.0 - - - - - - -
22/06:00pm 28.4 ESE 6 9 1008.9 - 0.0 - - - - - - -
22/05:30pm 29.2 ESE 8 14 1008.6 - 0.0 - - - - - - -
22/05:00pm 30.0 E 8 13 1008.4 - 0.0 - - - - - - -
22/04:30pm 30.6 E 7 12 1008.3 - 0.0 - - - - - - -
22/04:00pm 30.9 E 9 12 1008.3 - 0.0 - - - - - - -
22/03:30pm 31.3 ESE 8 13 1008.4 - 0.0 - - - - - - -
22/03:00pm 30.9 ESE 9 15 1008.5 - 0.0 - - - - - - -

Other Formats:

Comma delimited format used in spreadsheet applications
http://www.bom.gov.au/fwo/IDD60701/IDD60701.95146.axf

JavaScript Object Notation format (JSON) in row-major order
http://www.bom.gov.au/fwo/IDD60701/IDD60701.95146.json